Time;durP1;ratioP1;P1;durP2;ratioP2;P2;SDS_P1;SDS_P2;PMS_P1;PMS_P2;Temp;Humidity;BMP_temperature;BMP_pressure;BME280_temperature;BME280_humidity;BME280_pressure;Samples;Min_cycle;Max_cycle;Signal;HPM_P1;HPM_P2
2022/01/21 00:00:29;;;;;;;56.30;27.70;;;0.00;73.30;;;;;;5073680;28;20025;-19
2022/01/21 00:02:55;;;;;;;55.13;26.58;;;0.00;73.40;;;;;;5073660;28;20029;-20
2022/01/21 00:05:23;;;;;;;47.75;25.42;;;0.00;72.80;;;;;;5073681;28;20024;-20
2022/01/21 00:07:50;;;;;;;40.00;21.92;;;0.00;72.80;;;;;;5073641;28;20086;-19
2022/01/21 00:10:16;;;;;;;61.65;31.63;;;0.00;72.70;;;;;;5073630;28;20028;-20
2022/01/21 00:12:43;;;;;;;65.40;32.90;;;0.00;73.10;;;;;;5073588;28;20032;-19
2022/01/21 00:15:13;;;;;;;58.20;31.20;;;0.00;72.90;;;;;;5073781;28;20032;-19
2022/01/21 00:17:39;;;;;;;60.47;29.95;;;0.00;73.00;;;;;;5073741;28;20032;-19
2022/01/21 00:31:05;;;;;;;45.00;24.23;;;-0.20;72.00;;;;;;5073566;28;20086;-19
2022/01/21 00:33:32;;;;;;;28.10;14.35;;;-0.20;72.00;;;;;;5073046;28;20119;-19
2022/01/21 00:35:59;;;;;;;46.05;22.33;;;-0.20;71.70;;;;;;5073186;28;20033;-19
2022/01/21 00:38:27;;;;;;;24.02;12.18;;;-0.30;71.80;;;;;;5073011;28;20037;-19
2022/01/21 00:40:57;;;;;;;57.95;30.63;;;-0.30;71.60;;;;;;5073390;28;20515;-19
2022/01/21 00:43:31;;;;;;;30.42;15.18;;;-0.30;71.80;;;;;;5073475;28;20032;-19
2022/01/21 00:46:00;;;;;;;24.08;11.60;;;-0.30;71.70;;;;;;5073167;28;20480;-19
2022/01/21 00:48:26;;;;;;;19.42;9.45;;;-0.40;71.40;;;;;;5072821;28;20035;-19
2022/01/21 00:50:54;;;;;;;17.42;8.27;;;-0.40;71.60;;;;;;5073147;28;20057;-19
2022/01/21 00:53:20;;;;;;;32.70;17.58;;;-0.50;71.20;;;;;;5073049;28;20106;-19
2022/01/21 00:55:46;;;;;;;45.03;22.17;;;-0.50;71.20;;;;;;5071740;28;20111;-19
2022/01/21 00:58:13;;;;;;;17.65;8.50;;;-0.50;71.50;;;;;;5072125;28;20106;-19
2022/01/21 01:00:39;;;;;;;52.72;27.48;;;-0.50;71.30;;;;;;5073312;28;20032;-19
2022/01/21 01:03:05;;;;;;;52.33;24.67;;;-0.50;71.30;;;;;;5072900;28;20017;-19
2022/01/21 01:05:31;;;;;;;49.22;23.67;;;-0.50;71.40;;;;;;5073245;28;20027;-19
2022/01/21 01:07:59;;;;;;;38.45;19.88;;;-0.40;71.60;;;;;;5072899;28;20503;-19
2022/01/21 01:10:42;;;;;;;36.72;18.35;;;-0.40;71.20;;;;;;5073473;28;20032;-19
2022/01/21 01:21:23;;;;;;;43.17;23.15;;;-0.50;71.60;;;;;;5073352;28;20040;-19
2022/01/21 01:24:04;;;;;;;30.70;14.85;;;-0.50;71.30;;;;;;5073065;28;20029;-19
2022/01/21 01:29:17;;;;;;;58.95;31.95;;;-0.50;70.90;;;;;;5073030;28;20113;-19
2022/01/21 01:31:43;;;;;;;41.33;22.42;;;-0.60;72.00;;;;;;5072548;28;20476;-19
2022/01/21 01:34:09;;;;;;;47.50;25.23;;;-0.60;71.90;;;;;;5072887;28;20036;-19
2022/01/21 01:36:36;;;;;;;37.65;17.77;;;-0.70;71.40;;;;;;5072470;28;20032;-19
2022/01/21 01:41:40;;;;;;;45.55;25.40;;;-0.70;71.20;;;;;;5076543;28;20020;-19
2022/01/21 01:49:37;;;;;;;37.42;20.30;;;-0.80;71.00;;;;;;5076650;28;20387;-19
2022/01/21 01:52:09;;;;;;;48.78;25.40;;;-0.80;71.20;;;;;;5076230;28;20130;-19
2022/01/21 01:54:40;;;;;;;57.40;30.80;;;-0.90;71.20;;;;;;5074682;28;20051;-20
2022/01/21 01:57:06;;;;;;;58.30;29.77;;;-0.90;71.70;;;;;;5076509;28;20387;-19
2022/01/21 01:59:33;;;;;;;34.83;16.50;;;-0.90;71.90;;;;;;5076393;28;20039;-19
2022/01/21 02:02:02;;;;;;;29.95;14.15;;;-0.90;71.70;;;;;;5076314;28;20056;-19
2022/01/21 02:04:28;;;;;;;52.95;29.25;;;-0.90;71.70;;;;;;5075870;28;20036;-19
2022/01/21 02:06:55;;;;;;;25.95;13.27;;;-0.80;71.70;;;;;;5075971;28;20029;-19
2022/01/21 02:09:22;;;;;;;21.63;10.40;;;-0.80;71.70;;;;;;5075941;28;20052;-19
2022/01/21 02:11:49;;;;;;;43.40;21.63;;;-0.80;71.30;;;;;;5076124;28;20088;-19
2022/01/21 02:14:22;;;;;;;45.03;23.02;;;-0.80;71.10;;;;;;5075888;28;20017;-19
2022/01/21 02:22:17;;;;;;;47.65;23.85;;;-0.80;70.80;;;;;;5075906;28;20043;-19
2022/01/21 02:24:54;;;;;;;54.65;28.48;;;-0.90;71.00;;;;;;5075974;28;20036;-19
2022/01/21 02:27:21;;;;;;;96.32;48.67;;;-0.90;71.90;;;;;;5075972;28;20075;-19
2022/01/21 02:29:49;;;;;;;52.17;24.65;;;-0.90;72.60;;;;;;5075883;28;20033;-19
2022/01/21 02:32:17;;;;;;;34.65;16.65;;;-1.00;72.50;;;;;;5075539;28;20028;-18
2022/01/21 02:34:44;;;;;;;56.00;30.10;;;-1.00;71.70;;;;;;5075698;28;20116;-19
2022/01/21 02:37:13;;;;;;;39.30;19.45;;;-1.00;71.30;;;;;;5075433;28;20075;-19
2022/01/21 02:39:39;;;;;;;28.98;13.60;;;-1.00;71.40;;;;;;5076306;28;20542;-19
2022/01/21 02:42:06;;;;;;;61.17;28.75;;;-1.10;71.30;;;;;;5074141;28;20021;-19
2022/01/21 02:44:32;;;;;;;56.28;25.70;;;-1.10;73.20;;;;;;5075380;28;20021;-19
2022/01/21 02:47:01;;;;;;;45.38;23.05;;;-1.10;72.50;;;;;;5075037;28;20035;-19
2022/01/21 02:49:28;;;;;;;36.03;19.23;;;-1.20;72.20;;;;;;5074787;28;20043;-18
2022/01/21 02:51:56;;;;;;;24.30;12.05;;;-1.10;72.40;;;;;;5074963;28;20416;-18
2022/01/21 02:54:23;;;;;;;24.40;10.90;;;-1.20;71.90;;;;;;5074847;28;20032;-19
2022/01/21 02:56:49;;;;;;;26.73;11.00;;;-1.20;71.60;;;;;;5075154;28;20016;-19
2022/01/21 02:59:16;;;;;;;52.88;28.92;;;-1.20;71.50;;;;;;5073719;28;20109;-19
2022/01/21 03:01:44;;;;;;;26.77;13.32;;;-1.10;71.80;;;;;;5074971;28;20020;-19
2022/01/21 03:04:22;;;;;;;48.95;26.17;;;-1.20;71.40;;;;;;5075122;28;20024;-19
2022/01/21 03:06:49;;;;;;;27.63;13.52;;;-1.10;71.60;;;;;;5075233;28;20060;-19
2022/01/21 03:09:15;;;;;;;24.02;11.45;;;-1.10;71.60;;;;;;5074771;28;20393;-19
2022/01/21 03:11:41;;;;;;;32.10;16.63;;;-1.10;71.30;;;;;;5075040;28;20036;-19
2022/01/21 03:14:07;;;;;;;40.67;20.20;;;-1.10;71.10;;;;;;5073401;28;20050;-19
2022/01/21 03:16:33;;;;;;;18.35;9.23;;;-1.10;71.20;;;;;;5074573;28;20094;-19
2022/01/21 03:18:59;;;;;;;21.63;9.60;;;-1.10;71.00;;;;;;5074585;28;20032;-19
2022/01/21 03:21:26;;;;;;;60.15;28.83;;;-1.10;70.80;;;;;;5074515;28;20033;-19
2022/01/21 03:23:54;;;;;;;36.58;17.67;;;-1.20;70.70;;;;;;5074510;28;20048;-19
2022/01/21 03:26:23;;;;;;;46.17;25.33;;;-1.20;70.70;;;;;;5074247;28;20036;-19
2022/01/21 03:28:51;;;;;;;47.08;23.67;;;-1.20;71.00;;;;;;5074387;28;20029;-19
2022/01/21 03:31:17;;;;;;;42.55;21.55;;;-1.20;71.50;;;;;;5074865;28;20507;-19
2022/01/21 03:33:44;;;;;;;36.42;17.25;;;-1.30;72.10;;;;;;5074416;28;20060;-19
2022/01/21 03:36:11;;;;;;;74.22;37.75;;;-1.30;71.20;;;;;;5074573;28;20024;-19
2022/01/21 03:38:38;;;;;;;54.58;27.35;;;-1.30;71.70;;;;;;5074044;28;20028;-19
2022/01/21 03:41:05;;;;;;;36.03;20.25;;;-1.30;73.30;;;;;;5074208;28;20039;-19
2022/01/21 03:43:31;;;;;;;38.78;19.08;;;-1.30;72.40;;;;;;5074719;28;20024;-19
2022/01/21 03:45:59;;;;;;;24.25;12.35;;;-1.40;72.10;;;;;;5074262;28;20040;-18
2022/01/21 03:48:26;;;;;;;20.90;11.70;;;-1.40;72.00;;;;;;5073816;28;20504;-19
2022/01/21 03:50:52;;;;;;;40.33;20.17;;;-1.40;71.80;;;;;;5073792;28;20097;-18
2022/01/21 03:53:18;;;;;;;43.13;20.85;;;-1.40;71.70;;;;;;5074289;28;20021;-18
2022/01/21 03:55:45;;;;;;;41.33;21.10;;;-1.30;71.70;;;;;;5073904;28;20037;-19
2022/01/21 03:58:13;;;;;;;53.30;27.85;;;-1.30;71.40;;;;;;5073822;28;20103;-19
2022/01/21 04:00:49;;;;;;;54.30;29.65;;;-1.30;71.60;;;;;;5074046;28;20032;-19
2022/01/21 04:03:16;;;;;;;63.72;34.58;;;-1.30;71.70;;;;;;5073554;28;20020;-19
2022/01/21 04:05:43;;;;;;;65.68;36.40;;;-1.30;71.60;;;;;;5074038;28;20021;-19
2022/01/21 04:08:10;;;;;;;23.40;11.13;;;-1.30;71.50;;;;;;5074003;28;20024;-19
2022/01/21 04:10:41;;;;;;;54.40;27.40;;;-1.30;71.20;;;;;;5073406;28;20101;-19
2022/01/21 04:13:14;;;;;;;94.28;45.70;;;-1.30;71.00;;;;;;5073586;28;20029;-19
2022/01/21 04:15:43;;;;;;;61.92;30.33;;;-1.30;72.30;;;;;;5073838;28;20036;-19
2022/01/21 04:18:09;;;;;;;64.07;33.75;;;-1.40;72.50;;;;;;5073396;28;20024;-19
2022/01/21 04:20:36;;;;;;;65.63;35.58;;;-1.40;72.20;;;;;;5073487;28;20028;-19
2022/01/21 04:23:03;;;;;;;54.45;29.77;;;-1.50;72.40;;;;;;5073447;28;20043;-19
2022/01/21 04:25:29;;;;;;;62.38;31.90;;;-1.50;72.00;;;;;;5073712;28;20024;-19
2022/01/21 04:27:55;;;;;;;65.95;35.20;;;-1.50;72.20;;;;;;5072048;28;20384;-19
2022/01/21 04:30:21;;;;;;;47.70;24.05;;;-1.50;73.60;;;;;;5071935;28;20028;-19
2022/01/21 04:32:47;;;;;;;69.95;36.15;;;-1.60;72.20;;;;;;5073650;28;20025;-19
2022/01/21 04:35:13;;;;;;;29.42;15.13;;;-1.60;72.60;;;;;;5073194;28;20039;-19
2022/01/21 04:37:46;;;;;;;44.08;24.25;;;-1.60;72.80;;;;;;5074121;28;20017;-19
2022/01/21 04:40:16;;;;;;;42.65;21.45;;;-1.60;72.50;;;;;;5073266;28;20043;-19
2022/01/21 04:48:11;;;;;;;40.15;18.60;;;-1.50;72.20;;;;;;5073423;28;20032;-19
2022/01/21 04:50:51;;;;;;;39.97;21.35;;;-1.50;72.40;;;;;;5072839;28;20056;-19
2022/01/21 04:53:17;;;;;;;80.35;38.35;;;-1.50;72.10;;;;;;5073391;28;20107;-18
2022/01/21 04:55:44;;;;;;;65.32;34.50;;;-1.50;72.60;;;;;;5071743;28;20039;-19
2022/01/21 04:58:10;;;;;;;62.30;31.85;;;-1.50;72.10;;;;;;5073013;28;20397;-19
2022/01/21 05:00:36;;;;;;;27.00;13.07;;;-1.50;72.00;;;;;;5072783;28;20025;-18
2022/01/21 05:03:02;;;;;;;41.83;19.70;;;-1.50;71.60;;;;;;5073085;28;20027;-19
2022/01/21 05:05:29;;;;;;;22.77;11.90;;;-1.50;71.80;;;;;;5072962;28;20025;-19
2022/01/21 05:07:57;;;;;;;67.18;34.42;;;-1.50;71.40;;;;;;5072857;28;20404;-19
2022/01/21 05:10:27;;;;;;;63.20;30.23;;;-1.50;72.20;;;;;;5072697;28;20448;-19
2022/01/21 05:12:54;;;;;;;59.00;27.38;;;-1.50;73.10;;;;;;5074210;28;20032;-19
2022/01/21 05:15:28;;;;;;;89.05;42.30;;;-1.60;73.10;;;;;;5076890;28;20024;-19
2022/01/21 05:17:54;;;;;;;37.42;16.27;;;-1.60;73.40;;;;;;5076918;28;20074;-19
2022/01/21 05:20:21;;;;;;;52.15;23.77;;;-1.60;72.70;;;;;;5076674;28;20032;-19
2022/01/21 05:22:47;;;;;;;70.47;33.80;;;-1.70;72.40;;;;;;5077107;28;20041;-19
2022/01/21 05:25:18;;;;;;;36.13;18.90;;;-1.70;72.40;;;;;;5076768;28;20056;-18
2022/01/21 05:27:46;;;;;;;49.75;25.48;;;-1.70;72.30;;;;;;5076769;28;20090;-19
2022/01/21 05:30:15;;;;;;;29.05;14.25;;;-1.80;72.50;;;;;;5076702;28;20038;-19
2022/01/21 05:32:41;;;;;;;32.88;16.17;;;-1.80;72.20;;;;;;5076895;28;20414;-18
2022/01/21 05:35:08;;;;;;;36.63;18.30;;;-1.80;72.10;;;;;;5076800;28;20036;-19
2022/01/21 05:37:35;;;;;;;49.60;23.42;;;-1.80;72.10;;;;;;5076877;28;20047;-19
2022/01/21 05:40:04;;;;;;;74.20;35.67;;;-1.80;72.10;;;;;;5076808;28;20063;-19
2022/01/21 05:42:33;;;;;;;27.80;14.25;;;-1.80;72.30;;;;;;5076627;28;20108;-19
2022/01/21 05:47:26;;;;;;;30.73;14.63;;;-1.80;72.10;;;;;;5076352;28;20541;-19
2022/01/21 05:49:51;;;;;;;49.63;23.98;;;-1.70;71.80;;;;;;5074833;28;20111;-19
2022/01/21 05:52:19;;;;;;;39.90;21.38;;;-1.70;71.80;;;;;;5076206;28;20111;-19
2022/01/21 05:54:46;;;;;;;50.40;26.50;;;-1.70;71.60;;;;;;5076348;28;20484;-19
2022/01/21 05:57:17;;;;;;;22.20;10.60;;;-1.70;71.90;;;;;;5076183;28;20112;-19
2022/01/21 05:59:43;;;;;;;19.67;9.55;;;-1.70;71.70;;;;;;5077036;28;20082;-18
2022/01/21 06:02:12;;;;;;;32.13;13.70;;;-1.70;71.40;;;;;;5076334;28;20024;-19
2022/01/21 06:04:40;;;;;;;19.83;9.48;;;-1.70;71.10;;;;;;5076037;28;20025;-18
2022/01/21 06:07:07;;;;;;;26.55;12.15;;;-1.80;71.10;;;;;;5075980;28;20384;-19
2022/01/21 06:09:33;;;;;;;27.48;14.13;;;-1.80;71.10;;;;;;5076227;28;20548;-19
2022/01/21 06:11:59;;;;;;;26.58;12.90;;;-1.80;71.00;;;;;;5075914;28;20020;-19
2022/01/21 06:14:25;;;;;;;32.20;16.67;;;-1.80;71.10;;;;;;5075913;28;20046;-19
2022/01/21 06:16:53;;;;;;;44.88;24.15;;;-1.80;70.90;;;;;;5076090;28;20060;-19
2022/01/21 06:19:19;;;;;;;87.65;40.58;;;-1.90;71.00;;;;;;5075936;28;20024;-19
2022/01/21 06:21:44;;;;;;;44.38;20.90;;;-1.90;72.10;;;;;;5076058;28;20025;-19
2022/01/21 06:24:10;;;;;;;25.40;11.88;;;-2.00;71.90;;;;;;5075406;28;20474;-19
2022/01/21 06:26:37;;;;;;;23.63;10.10;;;-2.00;71.70;;;;;;5075241;28;20029;-19
2022/01/21 06:29:06;;;;;;;49.22;23.17;;;-2.00;71.40;;;;;;5075959;28;20385;-18
2022/01/21 06:31:32;;;;;;;95.85;44.58;;;-2.10;71.30;;;;;;5075572;28;20037;-19
2022/01/21 06:33:58;;;;;;;47.08;24.63;;;-2.10;72.30;;;;;;5075398;28;20032;-18
2022/01/21 06:36:24;;;;;;;54.08;27.38;;;-2.10;72.20;;;;;;5075259;28;20032;-19
2022/01/21 06:38:50;;;;;;;68.30;29.92;;;-2.10;72.20;;;;;;5075416;28;20035;-19
2022/01/21 06:41:16;;;;;;;62.10;29.58;;;-2.10;72.20;;;;;;5075357;28;20111;-19
2022/01/21 06:43:43;;;;;;;28.90;15.50;;;-2.00;72.50;;;;;;5075338;28;20025;-19
2022/01/21 06:46:10;;;;;;;36.85;15.77;;;-2.00;72.90;;;;;;5075585;28;20124;-19
2022/01/21 06:48:37;;;;;;;30.85;16.33;;;-2.00;72.30;;;;;;5074999;28;20469;-19
2022/01/21 06:51:04;;;;;;;22.95;11.25;;;-2.00;72.00;;;;;;5074972;28;20386;-19
2022/01/21 06:53:30;;;;;;;27.40;13.63;;;-1.90;71.80;;;;;;5075419;28;20032;-19
2022/01/21 06:55:56;;;;;;;19.13;9.45;;;-1.90;71.50;;;;;;5075328;28;20102;-19
2022/01/21 06:58:22;;;;;;;43.05;23.15;;;-1.80;71.40;;;;;;5075103;28;20051;-18
2022/01/21 07:00:48;;;;;;;42.75;20.85;;;-1.90;71.30;;;;;;5075022;28;20135;-20
2022/01/21 07:03:14;;;;;;;50.05;24.75;;;-1.80;71.40;;;;;;5075127;28;20033;-20
2022/01/21 07:05:40;;;;;;;60.40;28.98;;;-1.80;71.80;;;;;;5074845;28;20465;-20
2022/01/21 07:08:06;;;;;;;38.17;18.83;;;-1.80;72.50;;;;;;5075201;28;20020;-19
2022/01/21 07:10:32;;;;;;;35.33;15.45;;;-1.80;72.40;;;;;;5074756;28;20052;-20
2022/01/21 07:12:58;;;;;;;49.67;23.05;;;-1.80;72.20;;;;;;5074759;28;20070;-20
2022/01/21 07:15:25;;;;;;;65.35;31.52;;;-1.80;71.80;;;;;;5073392;28;20496;-19
2022/01/21 07:17:53;;;;;;;66.22;29.52;;;-1.70;73.20;;;;;;5074941;28;20028;-20
2022/01/21 07:20:22;;;;;;;45.90;20.48;;;-1.70;73.90;;;;;;5075156;28;20025;-20
2022/01/21 07:22:48;;;;;;;53.30;22.92;;;-1.80;73.90;;;;;;5074571;28;20029;-20
2022/01/21 07:25:15;;;;;;;55.30;24.88;;;-1.70;75.10;;;;;;5074869;28;20056;-20
2022/01/21 07:27:42;;;;;;;21.58;9.75;;;-1.70;74.20;;;;;;5074829;28;20020;-20
2022/01/21 07:30:09;;;;;;;66.38;27.80;;;-1.60;73.30;;;;;;5074426;28;20086;-20
2022/01/21 07:32:35;;;;;;;39.78;18.38;;;-1.50;73.30;;;;;;5074169;28;20025;-19
2022/01/21 07:35:02;;;;;;;32.88;14.23;;;-1.30;73.80;;;;;;5075161;28;20056;-20
2022/01/21 07:37:28;;;;;;;54.45;23.73;;;-1.20;73.80;;;;;;5073181;28;20060;-19
2022/01/21 07:39:54;;;;;;;44.75;19.25;;;-1.10;73.30;;;;;;5074228;28;20071;-19
2022/01/21 07:42:20;;;;;;;33.55;15.40;;;-0.90;73.90;;;;;;5072782;28;20029;-19
2022/01/21 07:44:47;;;;;;;37.72;18.10;;;-0.80;73.40;;;;;;5075226;28;20020;-20
2022/01/21 07:47:13;;;;;;;18.27;8.68;;;-0.70;73.00;;;;;;5074393;28;20033;-19
2022/01/21 07:49:39;;;;;;;26.15;12.43;;;-0.60;72.50;;;;;;5074237;28;20012;-20
2022/01/21 07:52:06;;;;;;;19.00;7.82;;;-0.50;72.70;;;;;;5073762;28;20059;-18
2022/01/21 07:54:32;;;;;;;16.73;7.32;;;-0.30;72.00;;;;;;5074023;28;20102;-17
2022/01/21 07:56:57;;;;;;;17.65;8.88;;;-0.20;72.00;;;;;;5074189;28;20473;-18
2022/01/21 07:59:23;;;;;;;17.85;8.25;;;-0.10;71.80;;;;;;5074176;28;20067;-17
2022/01/21 08:01:49;;;;;;;36.65;17.00;;;0.00;71.70;;;;;;5074641;28;20385;-18
2022/01/21 08:04:15;;;;;;;25.77;12.30;;;0.00;72.60;;;;;;5073374;28;20024;-18
2022/01/21 08:06:41;;;;;;;44.65;23.35;;;0.10;72.50;;;;;;5074014;28;20102;-17
2022/01/21 08:09:07;;;;;;;62.25;30.58;;;0.20;74.10;;;;;;5073639;28;20488;-19
2022/01/21 08:11:33;;;;;;;69.13;31.48;;;0.30;75.10;;;;;;5073557;28;20025;-19
2022/01/21 08:13:59;;;;;;;83.70;36.67;;;0.40;76.50;;;;;;5073672;28;20043;-19
2022/01/21 08:16:25;;;;;;;67.65;32.03;;;0.50;76.90;;;;;;5073395;28;20028;-19
2022/01/21 08:18:54;;;;;;;52.45;24.60;;;0.70;75.80;;;;;;5073404;28;20035;-19
2022/01/21 08:21:21;;;;;;;46.05;21.17;;;0.80;76.00;;;;;;5073734;28;20526;-19
2022/01/21 08:23:49;;;;;;;49.63;22.08;;;1.00;75.80;;;;;;5073475;28;20033;-19
2022/01/21 08:26:19;;;;;;;34.70;16.60;;;1.10;74.20;;;;;;5073199;28;20056;-19
2022/01/21 08:28:46;;;;;;;44.33;18.98;;;1.30;74.50;;;;;;5073738;28;20048;-20
2022/01/21 08:31:12;;;;;;;49.95;22.40;;;1.40;74.00;;;;;;5073568;28;20488;-19
2022/01/21 08:33:38;;;;;;;37.38;16.58;;;1.60;74.40;;;;;;5073176;28;20115;-20
2022/01/21 08:36:04;;;;;;;28.23;12.90;;;1.80;73.70;;;;;;5073577;28;20119;-19
2022/01/21 08:38:30;;;;;;;34.08;15.88;;;1.90;73.70;;;;;;5073133;28;20043;-20
2022/01/21 08:40:56;;;;;;;28.55;12.23;;;2.10;72.80;;;;;;5073314;28;20380;-20
2022/01/21 08:43:22;;;;;;;34.83;17.15;;;2.40;72.40;;;;;;5073195;28;20120;-20
2022/01/21 08:45:48;;;;;;;38.50;18.40;;;2.60;71.60;;;;;;5073138;28;20099;-20
2022/01/21 08:48:14;;;;;;;32.60;15.60;;;2.80;71.00;;;;;;5072448;28;20119;-22
2022/01/21 08:50:40;;;;;;;29.27;14.07;;;3.00;69.80;;;;;;5071904;28;20041;-20
2022/01/21 08:53:10;;;;;;;25.45;13.15;;;3.30;70.10;;;;;;5073521;28;20021;-22
2022/01/21 08:55:36;;;;;;;33.72;15.82;;;3.60;69.30;;;;;;5073269;28;20055;-21
2022/01/21 08:58:03;;;;;;;26.67;12.07;;;3.80;69.00;;;;;;5073336;28;20024;-21
2022/01/21 09:00:29;;;;;;;26.17;13.43;;;4.10;68.90;;;;;;5073179;28;20031;-22
2022/01/21 09:02:54;;;;;;;20.35;9.95;;;4.30;68.20;;;;;;5073759;28;20029;-21
2022/01/21 09:05:21;;;;;;;34.03;17.05;;;4.50;67.80;;;;;;5073212;28;20440;-21
2022/01/21 09:07:47;;;;;;;31.83;15.88;;;4.80;68.50;;;;;;5072958;28;20380;-22
2022/01/21 09:10:14;;;;;;;21.65;11.00;;;4.90;67.40;;;;;;5072969;28;20036;-22
2022/01/21 09:12:40;;;;;;;21.58;11.55;;;5.10;66.90;;;;;;5072897;28;20032;-22
2022/01/21 09:15:07;;;;;;;25.17;12.45;;;5.40;66.80;;;;;;5071585;28;20037;-22
2022/01/21 09:17:35;;;;;;;23.27;11.13;;;5.60;66.30;;;;;;5073131;28;20021;-22
2022/01/21 09:20:02;;;;;;;24.70;11.25;;;5.80;66.30;;;;;;5072853;28;20033;-21
2022/01/21 09:22:28;;;;;;;22.92;11.05;;;6.10;66.40;;;;;;5072625;28;20033;-22
2022/01/21 09:24:54;;;;;;;21.00;11.20;;;6.30;66.10;;;;;;5073026;28;20082;-22
2022/01/21 09:27:20;;;;;;;19.38;9.57;;;6.60;65.40;;;;;;5072753;28;20071;-22
2022/01/21 09:29:46;;;;;;;27.48;12.88;;;6.90;65.20;;;;;;5072686;28;20060;-22
2022/01/21 09:32:12;;;;;;;18.17;9.13;;;7.20;65.20;;;;;;5071507;28;20070;-22
2022/01/21 09:34:38;;;;;;;27.50;14.70;;;7.50;64.50;;;;;;5073251;28;20039;-21
2022/01/21 09:37:04;;;;;;;26.05;12.82;;;7.80;64.00;;;;;;5072983;28;20025;-21
2022/01/21 09:39:31;;;;;;;24.10;11.77;;;8.10;63.10;;;;;;5073004;28;20098;-21
2022/01/21 09:41:59;;;;;;;23.38;12.02;;;8.40;62.90;;;;;;5072951;28;20064;-21
2022/01/21 09:44:27;;;;;;;24.27;12.13;;;8.60;62.20;;;;;;5072377;28;20028;-21
2022/01/21 09:46:57;;;;;;;20.83;10.15;;;8.90;62.00;;;;;;5072583;28;20031;-21
2022/01/21 09:49:27;;;;;;;22.77;13.52;;;9.20;61.70;;;;;;5072491;28;20060;-21
2022/01/21 09:52:06;;;;;;;21.80;12.23;;;9.40;61.20;;;;;;5072505;28;20527;-21
2022/01/21 09:54:36;;;;;;;25.65;13.77;;;9.70;60.60;;;;;;5071008;28;20028;-21
2022/01/21 09:57:05;;;;;;;20.30;10.15;;;9.90;60.40;;;;;;5072808;28;20373;-21
2022/01/21 09:59:35;;;;;;;18.75;10.15;;;10.00;60.10;;;;;;5073431;28;20021;-21
2022/01/21 10:02:04;;;;;;;21.75;11.50;;;10.30;60.10;;;;;;5076147;28;20031;-21
2022/01/21 10:04:36;;;;;;;22.38;12.43;;;10.40;59.90;;;;;;5076189;28;20100;-21
2022/01/21 10:07:04;;;;;;;17.33;9.27;;;10.60;59.50;;;;;;5076669;28;20025;-21
2022/01/21 10:09:31;;;;;;;19.83;11.68;;;10.70;59.10;;;;;;5076338;28;20028;-21
2022/01/21 10:11:58;;;;;;;19.25;11.35;;;10.90;58.40;;;;;;5076539;28;20024;-22
2022/01/21 10:14:28;;;;;;;18.67;9.68;;;11.00;57.20;;;;;;5075589;28;20025;-21
2022/01/21 10:16:56;;;;;;;15.75;8.50;;;11.10;56.00;;;;;;5076195;28;20056;-21
2022/01/21 10:19:29;;;;;;;17.35;8.98;;;11.20;56.10;;;;;;5076093;28;20032;-21
2022/01/21 10:22:03;;;;;;;15.50;8.27;;;11.40;53.70;;;;;;5075843;28;20512;-22
2022/01/21 10:24:32;;;;;;;13.40;7.40;;;11.60;54.50;;;;;;5075643;28;20032;-21
2022/01/21 10:26:59;;;;;;;14.07;8.10;;;11.70;54.30;;;;;;5076129;28;20021;-21
2022/01/21 10:29:36;;;;;;;14.27;8.50;;;11.70;52.40;;;;;;5075627;28;20025;-22
2022/01/21 10:32:02;;;;;;;13.65;8.35;;;11.80;52.50;;;;;;5074441;28;20366;-21
2022/01/21 10:34:38;;;;;;;17.02;10.00;;;11.80;51.60;;;;;;5075242;28;20029;-21
2022/01/21 10:37:22;;;;;;;16.58;9.57;;;11.90;51.10;;;;;;5075528;28;20032;-21
2022/01/21 10:40:05;;;;;;;16.10;8.93;;;11.90;48.40;;;;;;5075784;28;20025;-21
2022/01/21 10:42:31;;;;;;;14.13;7.80;;;11.90;50.80;;;;;;5075268;28;20029;-21
2022/01/21 10:44:59;;;;;;;13.20;7.80;;;12.10;51.00;;;;;;5075756;28;20023;-21
2022/01/21 10:47:31;;;;;;;13.73;7.78;;;12.20;51.30;;;;;;5075677;28;20181;-21
2022/01/21 10:50:13;;;;;;;15.13;9.10;;;12.40;51.50;;;;;;5075065;28;20135;-21
2022/01/21 10:52:53;;;;;;;13.70;7.85;;;12.40;48.10;;;;;;5075231;28;20024;-21
2022/01/21 10:55:37;;;;;;;13.95;7.60;;;12.60;49.40;;;;;;5075120;28;20028;-21
2022/01/21 10:58:12;;;;;;;13.20;7.90;;;12.70;49.80;;;;;;5075125;28;20031;-21
2022/01/21 11:00:56;;;;;;;11.77;7.20;;;12.80;49.30;;;;;;5075423;28;20033;-21
2022/01/21 11:03:22;;;;;;;13.88;7.63;;;12.90;49.20;;;;;;5075287;28;20051;-21
2022/01/21 11:05:50;;;;;;;14.15;7.75;;;13.00;48.70;;;;;;5074964;28;20128;-21
2022/01/21 11:08:17;;;;;;;11.82;7.05;;;13.10;48.60;;;;;;5074709;28;20145;-21
2022/01/21 11:10:51;;;;;;;15.13;8.32;;;13.10;48.20;;;;;;5074949;28;20024;-20
2022/01/21 11:13:20;;;;;;;;;;;13.20;48.10;;;;;;5075616;28;20066;-20
2022/01/21 11:15:48;;;;;;;11.85;6.85;;;13.20;45.10;;;;;;5074709;28;19997;-20
2022/01/21 11:18:17;;;;;;;12.70;7.68;;;13.40;48.80;;;;;;5074455;28;20024;-20
2022/01/21 11:20:48;;;;;;;12.63;8.00;;;13.50;48.70;;;;;;5074681;28;20509;-20
2022/01/21 11:23:15;;;;;;;14.60;7.38;;;13.60;48.80;;;;;;5074699;28;20025;-20
2022/01/21 11:25:54;;;;;;;13.90;8.77;;;13.90;48.00;;;;;;5074852;28;20033;-20
2022/01/21 11:28:23;;;;;;;12.68;7.00;;;14.00;47.80;;;;;;5074396;28;20078;-20
2022/01/21 11:30:51;;;;;;;11.27;6.72;;;14.30;47.20;;;;;;5074481;28;20028;-20
2022/01/21 11:33:21;;;;;;;11.25;6.45;;;14.50;46.40;;;;;;5074622;28;20025;-20
2022/01/21 11:35:48;;;;;;;11.57;6.72;;;14.90;46.20;;;;;;5074266;28;20033;-20
2022/01/21 11:38:17;;;;;;;11.52;7.05;;;15.20;45.70;;;;;;5074105;28;20035;-20
2022/01/21 11:40:45;;;;;;;10.20;5.63;;;15.50;44.80;;;;;;5074520;28;20055;-21
2022/01/21 11:43:12;;;;;;;12.93;7.30;;;15.80;44.60;;;;;;5074492;28;20027;-20
2022/01/21 11:50:46;;;;;;;11.82;7.07;;;16.40;42.00;;;;;;5074444;28;20567;-20
2022/01/21 11:53:13;;;;;;;10.30;6.05;;;16.60;40.70;;;;;;5074852;28;20024;-20
2022/01/21 11:55:45;;;;;;;10.73;7.07;;;16.80;41.10;;;;;;5073891;28;20040;-20
2022/01/21 11:58:16;;;;;;;11.02;6.53;;;17.00;41.30;;;;;;5073965;28;20079;-20
2022/01/21 12:00:43;;;;;;;12.02;6.65;;;17.20;40.90;;;;;;5074054;28;20052;-20
2022/01/21 12:03:09;;;;;;;9.75;6.45;;;17.50;40.00;;;;;;5073725;28;20025;-19
2022/01/21 12:05:36;;;;;;;11.98;6.32;;;17.70;39.60;;;;;;5074082;28;20032;-20
2022/01/21 12:08:04;;;;;;;10.88;6.32;;;17.90;39.70;;;;;;5073741;28;20515;-20
2022/01/21 12:10:36;;;;;;;8.18;5.60;;;18.20;39.70;;;;;;5073740;28;20029;-20
2022/01/21 12:13:23;;;;;;;10.40;6.40;;;18.50;39.30;;;;;;5073688;28;20048;-20
2022/01/21 12:21:36;;;;;;;11.23;6.20;;;19.10;36.80;;;;;;5073854;28;20035;-20
2022/01/21 12:24:03;;;;;;;10.52;6.30;;;19.30;34.30;;;;;;5073245;28;20024;-20
2022/01/21 12:26:30;;;;;;;9.32;5.57;;;19.50;36.80;;;;;;5073220;28;20079;-20
2022/01/21 12:28:59;;;;;;;8.45;4.97;;;19.70;36.70;;;;;;5073311;28;20056;-20
2022/01/21 12:31:41;;;;;;;10.10;5.68;;;19.90;37.00;;;;;;5073590;28;20047;-20
2022/01/21 12:34:16;;;;;;;8.52;4.75;;;20.20;33.90;;;;;;5073280;28;20381;-20
2022/01/21 12:36:54;;;;;;;8.70;4.80;;;20.50;37.10;;;;;;5073372;28;20027;-20
2022/01/21 12:39:41;;;;;;;6.80;4.00;;;20.80;35.90;;;;;;5073359;28;20481;-20
2022/01/21 12:42:23;;;;;;;8.48;4.97;;;21.20;33.80;;;;;;5073534;28;20043;-20
2022/01/21 12:44:57;;;;;;;8.85;5.03;;;21.40;32.10;;;;;;5073895;28;20012;-20
2022/01/21 12:47:43;;;;;;;7.93;5.22;;;21.70;34.60;;;;;;5073566;28;20025;-20
2022/01/21 12:50:57;;;;;;;6.90;3.95;;;21.60;32.90;;;;;;5073248;28;20055;-20
2022/01/21 12:53:21;;;;;;;7.33;4.67;;;21.30;32.90;;;;;;5072867;28;20037;-20
2022/01/21 12:55:55;;;;;;;9.27;5.18;;;21.00;36.00;;;;;;5073385;28;20056;-20
2022/01/21 12:58:28;;;;;;;6.22;3.67;;;20.80;35.80;;;;;;5072962;28;20032;-20
2022/01/21 13:01:12;;;;;;;9.85;5.28;;;20.80;35.90;;;;;;5073680;28;20054;-20
2022/01/21 13:03:56;;;;;;;5.55;3.08;;;20.90;33.80;;;;;;5073271;28;20108;-20
2022/01/21 13:06:27;;;;;;;6.90;4.13;;;21.10;35.80;;;;;;5073508;28;20025;-20
2022/01/21 13:09:09;;;;;;;4.93;3.67;;;21.40;35.80;;;;;;5073015;28;20503;-20
2022/01/21 13:11:40;;;;;;;6.03;3.58;;;21.70;35.70;;;;;;5072989;28;20043;-20
2022/01/21 13:14:25;;;;;;;7.97;3.95;;;21.90;35.40;;;;;;5073221;28;20068;-20
2022/01/21 13:17:00;;;;;;;6.20;3.15;;;22.10;33.80;;;;;;5072975;28;20067;-20
2022/01/21 13:19:28;;;;;;;4.57;3.40;;;22.10;32.90;;;;;;5072759;28;20040;-20
2022/01/21 13:21:55;;;;;;;4.63;3.53;;;22.00;32.80;;;;;;5072753;28;20089;-20
2022/01/21 13:24:29;;;;;;;4.75;3.25;;;21.70;32.90;;;;;;5072584;28;20477;-20
2022/01/21 13:26:56;;;;;;;3.95;2.78;;;21.40;33.70;;;;;;5072840;28;20029;-20
2022/01/21 13:29:37;;;;;;;4.85;3.05;;;21.10;34.30;;;;;;5073328;28;20012;-20
2022/01/21 13:32:05;;;;;;;4.50;3.08;;;21.00;32.50;;;;;;5072792;28;20524;-20
2022/01/21 13:34:39;;;;;;;4.63;3.20;;;20.90;34.10;;;;;;5074608;28;20028;-20